createdAt,value
2023-05-14T00:00:27.359Z,97710.88
2023-05-14T00:02:54.837Z,97716.88
2023-05-14T00:05:23.073Z,97718.09
2023-05-14T00:07:50.403Z,97725.78
2023-05-14T00:10:17.627Z,97727.25
2023-05-14T00:12:44.762Z,97723.28
2023-05-14T00:15:13.294Z,97721.63
2023-05-14T00:17:40.379Z,97723.91
2023-05-14T00:20:07.920Z,97720.59
2023-05-14T00:22:35.234Z,97723.50
2023-05-14T00:25:02.334Z,97722.88
2023-05-14T00:27:29.519Z,97723.72
2023-05-14T00:29:57.088Z,97731.19
2023-05-14T00:32:26.189Z,97732.59
2023-05-14T00:34:53.844Z,97732.59
2023-05-14T00:37:21.373Z,97734.25
2023-05-14T00:39:48.428Z,97729.28
2023-05-14T00:42:15.650Z,97733.44
2023-05-14T00:44:42.764Z,97731.38
2023-05-14T00:47:09.922Z,97738.63
2023-05-14T00:49:38.671Z,97740.91
2023-05-14T00:52:06.919Z,97745.03
2023-05-14T00:54:34.609Z,97745.44
2023-05-14T00:57:02.214Z,97747.09
2023-05-14T00:59:29.382Z,97744.63
2023-05-14T01:01:56.680Z,97740.22
2023-05-14T01:04:24.378Z,97740.97
2023-05-14T01:06:59.954Z,97745.50
2023-05-14T01:09:36.601Z,97742.47
2023-05-14T01:12:08.714Z,97755.16
2023-05-14T01:14:41.037Z,97756.22
2023-05-14T01:17:11.126Z,97765.72
2023-05-14T01:19:40.059Z,97755.81
2023-05-14T01:22:08.798Z,97767.38
2023-05-14T01:24:35.938Z,97758.09
2023-05-14T01:27:07.642Z,97764.50
2023-05-14T01:29:37.437Z,97765.72
2023-05-14T01:32:06.645Z,97758.72
2023-05-14T01:34:35.461Z,97768.25
2023-05-14T01:37:03.161Z,97766.97
2023-05-14T01:39:32.273Z,97774.84
2023-05-14T01:42:00.291Z,97771.31
2023-05-14T01:44:28.099Z,97785.44
2023-05-14T01:46:55.226Z,97777.75
2023-05-14T01:49:22.343Z,97784.59
2023-05-14T01:51:50.178Z,97782.13
2023-05-14T01:54:17.254Z,97782.31
2023-05-14T01:56:45.897Z,97790.81
2023-05-14T01:59:13.001Z,97794.31
2023-05-14T02:01:40.226Z,97794.94
2023-05-14T02:04:07.361Z,97803.25
2023-05-14T02:06:34.574Z,97809.25
2023-05-14T02:09:01.628Z,97807.59
2023-05-14T02:11:28.719Z,97805.94
2023-05-14T02:13:57.675Z,97805.09
2023-05-14T02:16:25.401Z,97815.25
2023-05-14T02:18:52.690Z,97811.72
2023-05-14T02:21:19.932Z,97808.81
2023-05-14T02:23:47.679Z,97816.47
2023-05-14T02:26:14.892Z,97825.78
2023-05-14T02:28:41.963Z,97824.56
2023-05-14T02:31:10.678Z,97825.41
2023-05-14T02:33:38.018Z,97827.25
2023-05-14T02:36:05.369Z,97833.66
2023-05-14T02:38:32.969Z,97833.88
2023-05-14T02:41:00.102Z,97827.06
2023-05-14T02:43:27.202Z,97828.72
2023-05-14T02:45:54.394Z,97825.41
2023-05-14T02:48:23.033Z,97820.81
2023-05-14T02:50:50.571Z,97826.63
2023-05-14T02:53:17.696Z,97829.13
2023-05-14T02:55:45.377Z,97834.94
2023-05-14T02:58:12.494Z,97837.19
2023-05-14T03:00:40.152Z,97837.41
2023-05-14T03:03:08.043Z,97840.50
2023-05-14T03:05:37.237Z,97840.72
2023-05-14T03:08:04.427Z,97843.19
2023-05-14T03:10:31.501Z,97851.50
2023-05-14T03:12:58.613Z,97842.78
2023-05-14T03:15:25.827Z,97852.31
2023-05-14T03:17:53.327Z,97849.00
2023-05-14T03:20:20.696Z,97846.69
2023-05-14T03:22:49.335Z,97846.94
2023-05-14T03:25:16.555Z,97849.22
2023-05-14T03:27:43.706Z,97854.53
2023-05-14T03:30:12.230Z,97853.13
2023-05-14T03:32:40.239Z,97850.81
2023-05-14T03:35:08.108Z,97849.41
2023-05-14T03:37:35.178Z,97864.69
2023-05-14T03:40:04.757Z,97866.78
2023-05-14T03:42:31.883Z,97871.13
2023-05-14T03:44:59.092Z,97871.78
2023-05-14T03:47:26.286Z,97869.69
2023-05-14T03:49:53.724Z,97873.63
2023-05-14T03:52:21.196Z,97878.41
2023-05-14T03:54:49.063Z,97876.97
2023-05-14T03:57:17.569Z,97883.78
2023-05-14T03:59:44.665Z,97884.81
2023-05-14T04:02:13.378Z,97889.16
2023-05-14T04:04:41.261Z,97890.41
2023-05-14T04:07:08.380Z,97887.06
2023-05-14T04:09:35.493Z,97888.13
2023-05-14T04:12:02.982Z,97893.06
2023-05-14T04:14:32.104Z,97905.72
2023-05-14T04:17:00.358Z,97906.75
2023-05-14T04:19:28.207Z,97904.69
2023-05-14T04:21:55.902Z,97907.56
2023-05-14T04:24:23.219Z,97918.13
2023-05-14T04:26:50.354Z,97922.50
2023-05-14T04:29:18.432Z,97918.13
2023-05-14T04:31:49.374Z,97922.66
2023-05-14T04:34:16.765Z,97931.81
2023-05-14T04:36:43.829Z,97925.38
2023-05-14T04:39:10.859Z,97931.38
2023-05-14T04:41:38.065Z,97934.91
2023-05-14T04:44:06.518Z,97931.38
2023-05-14T04:46:34.707Z,97936.41
2023-05-14T04:49:04.217Z,97938.47
2023-05-14T04:51:31.656Z,97945.69
2023-05-14T04:53:59.275Z,97946.38
2023-05-14T04:56:26.650Z,97945.53
2023-05-14T04:58:53.864Z,97943.50
2023-05-14T05:01:20.936Z,97949.69
2023-05-14T05:03:48.587Z,97952.16
2023-05-14T05:06:17.157Z,97949.06
2023-05-14T05:08:44.367Z,97951.53
2023-05-14T05:11:11.452Z,97956.53
2023-05-14T05:13:38.670Z,97952.63
2023-05-14T05:16:06.206Z,97951.75
2023-05-14T05:18:33.448Z,97959.22
2023-05-14T05:21:00.681Z,97959.59
2023-05-14T05:23:29.173Z,97964.78
2023-05-14T05:25:56.804Z,97968.09
2023-05-14T05:28:24.035Z,97956.25
2023-05-14T05:30:51.221Z,97974.47
2023-05-14T05:33:18.509Z,97967.41
2023-05-14T05:35:45.606Z,97969.47
2023-05-14T05:38:12.675Z,97982.34
2023-05-14T05:40:41.342Z,97979.44
2023-05-14T05:43:08.526Z,97979.22
2023-05-14T05:45:35.871Z,97977.84
2023-05-14T05:48:03.065Z,97981.16
2023-05-14T05:50:30.579Z,97979.53
2023-05-14T05:52:57.773Z,97984.06
2023-05-14T05:55:24.847Z,97983.69
2023-05-14T05:57:53.334Z,97987.63
2023-05-14T06:00:20.880Z,97992.53
2023-05-14T06:02:49.494Z,97992.50
2023-05-14T06:05:16.897Z,97992.50
2023-05-14T06:07:44.054Z,97990.59
2023-05-14T06:10:11.347Z,97993.13
2023-05-14T06:12:38.643Z,97991.44
2023-05-14T06:15:08.153Z,97991.44
2023-05-14T06:17:35.495Z,97993.50
2023-05-14T06:20:03.178Z,98000.16
2023-05-14T06:22:30.419Z,97994.16
2023-05-14T06:24:57.734Z,97996.91
2023-05-14T06:27:24.817Z,98002.25
2023-05-14T06:29:52.365Z,98009.34
2023-05-14T06:32:21.398Z,97999.00
2023-05-14T06:34:48.787Z,98002.25
2023-05-14T06:37:16.079Z,98005.00
2023-05-14T06:39:43.295Z,98008.84
2023-05-14T06:42:10.322Z,98010.69
2023-05-14T06:44:37.485Z,98014.38
2023-05-14T06:47:05.310Z,98009.66
2023-05-14T06:49:35.114Z,98014.81
2023-05-14T06:52:02.865Z,98015.38
2023-05-14T06:54:30.270Z,98011.53
2023-05-14T06:56:57.405Z,98015.25
2023-05-14T06:59:24.942Z,98010.59
2023-05-14T07:01:52.153Z,98022.16
2023-05-14T07:04:19.685Z,98030.03
2023-05-14T07:06:48.254Z,98023.84
2023-05-14T07:09:16.410Z,98026.03
2023-05-14T07:11:44.154Z,98028.81
2023-05-14T07:14:11.631Z,98042.09
2023-05-14T07:16:38.924Z,98033.16
2023-05-14T07:19:06.827Z,98035.16
2023-05-14T07:21:35.097Z,98037.47
2023-05-14T07:24:05.062Z,98033.81
2023-05-14T07:26:32.640Z,98039.59
2023-05-14T07:28:59.812Z,98042.72
2023-05-14T07:31:27.944Z,98038.72
2023-05-14T07:33:55.724Z,98043.69
2023-05-14T07:36:24.055Z,98053.38
2023-05-14T07:38:51.326Z,98059.00
2023-05-14T07:41:20.438Z,98057.97
2023-05-14T07:43:48.137Z,98057.31
2023-05-14T07:46:15.344Z,98059.22
2023-05-14T07:48:42.638Z,98064.63
2023-05-14T07:51:09.922Z,98062.34
2023-05-14T07:53:37.098Z,98066.25
2023-05-14T07:56:04.386Z,98068.34
2023-05-14T07:58:32.973Z,98073.09
2023-05-14T08:01:00.523Z,98076.59
2023-05-14T08:03:27.649Z,98076.41
2023-05-14T08:05:54.891Z,98084.53
2023-05-14T08:08:22.529Z,98083.03
2023-05-14T08:10:49.632Z,98088.00
2023-05-14T08:13:16.761Z,98084.44
2023-05-14T08:15:45.768Z,98092.28
2023-05-14T08:18:13.503Z,98089.81
2023-05-14T08:20:40.786Z,98093.50
2023-05-14T08:23:07.856Z,98101.19
2023-05-14T08:25:35.387Z,98098.03
2023-05-14T08:28:02.563Z,98098.06
2023-05-14T08:30:29.822Z,98094.34
2023-05-14T08:32:58.649Z,98099.97
2023-05-14T08:35:26.499Z,98096.84
2023-05-14T08:37:54.117Z,98100.75
2023-05-14T08:40:21.538Z,98101.63
2023-05-14T08:42:49.070Z,98107.41
2023-05-14T08:45:18.321Z,98100.13
2023-05-14T08:47:47.502Z,98103.03
2023-05-14T08:50:17.311Z,98109.22
2023-05-14T08:52:44.723Z,98108.53
2023-05-14T08:55:13.457Z,98108.31
2023-05-14T08:57:41.055Z,98108.31
2023-05-14T09:00:09.938Z,98109.03
2023-05-14T09:02:37.132Z,98104.78
2023-05-14T09:05:04.530Z,98109.31
2023-05-14T09:07:33.474Z,98100.34
2023-05-14T09:10:01.733Z,98101.56
2023-05-14T09:15:11.940Z,98099.00
2023-05-14T09:17:39.088Z,98105.22
2023-05-14T09:20:07.035Z,98095.69
2023-05-14T09:25:06.309Z,98095.34
2023-05-14T09:27:35.429Z,98091.03
2023-05-14T09:30:06.767Z,98090.41
2023-05-14T09:32:37.264Z,98086.03
2023-05-14T09:35:14.698Z,98092.44
2023-05-14T09:37:42.301Z,98093.47
2023-05-14T09:40:11.596Z,98091.84
2023-05-14T09:42:40.571Z,98100.50
2023-05-14T09:45:09.214Z,98092.91
2023-05-14T09:47:37.335Z,98094.09
2023-05-14T09:50:06.755Z,98096.84
2023-05-14T09:52:34.365Z,98089.81
2023-05-14T09:55:01.531Z,98096.56
2023-05-14T09:57:30.882Z,98090.16
2023-05-14T09:59:58.400Z,98095.72
2023-05-14T10:02:27.097Z,98089.91
2023-05-14T10:04:55.182Z,98091.00
2023-05-14T10:07:23.630Z,98092.88
2023-05-14T10:09:55.535Z,98092.91
2023-05-14T10:12:24.448Z,98090.22
2023-05-14T10:14:57.609Z,98094.59
2023-05-14T10:17:28.006Z,98087.31
2023-05-14T10:19:57.818Z,98086.09
2023-05-14T10:22:26.814Z,98092.91
2023-05-14T10:24:54.364Z,98092.28
2023-05-14T10:27:22.154Z,98093.41
2023-05-14T10:29:52.354Z,98090.91
2023-05-14T10:32:21.392Z,98090.88
2023-05-14T10:34:48.431Z,98090.88
2023-05-14T10:37:16.110Z,98094.47
2023-05-14T10:39:44.051Z,98095.09
2023-05-14T10:42:11.653Z,98098.66
2023-05-14T10:44:40.349Z,98096.63
2023-05-14T10:47:07.620Z,98104.25
2023-05-14T10:49:43.392Z,98104.63
2023-05-14T10:52:11.306Z,98107.53
2023-05-14T10:54:38.969Z,98117.09
2023-05-14T10:57:09.791Z,98114.69
2023-05-14T10:59:36.829Z,98107.81
2023-05-14T11:02:05.430Z,98112.88
2023-05-14T11:04:32.797Z,98108.88
2023-05-14T11:07:01.602Z,98111.34
2023-05-14T11:09:29.548Z,98113.25
2023-05-14T11:11:56.660Z,98110.25
2023-05-14T11:14:24.044Z,98111.84
2023-05-14T11:16:51.340Z,98107.06
2023-05-14T11:19:21.837Z,98112.88
2023-05-14T11:21:48.998Z,98116.31
2023-05-14T11:24:17.542Z,98118.84
2023-05-14T11:26:45.316Z,98113.31
2023-05-14T11:29:12.798Z,98111.88
2023-05-14T11:31:40.519Z,98120.69
2023-05-14T11:34:08.181Z,98126.34
2023-05-14T11:36:36.845Z,98122.38
2023-05-14T11:39:04.235Z,98118.59
2023-05-14T11:41:33.023Z,98124.53
2023-05-14T11:44:00.372Z,98123.66
2023-05-14T11:46:28.038Z,98128.81
2023-05-14T11:48:55.522Z,98127.75
2023-05-14T11:51:22.620Z,98129.50
2023-05-14T11:53:50.024Z,98128.22
2023-05-14T11:56:17.105Z,98132.53
2023-05-14T11:58:49.483Z,98125.50
2023-05-14T12:01:17.179Z,98122.28
2023-05-14T12:03:44.459Z,98120.25
2023-05-14T12:06:11.612Z,98128.47
2023-05-14T12:08:38.684Z,98126.03
2023-05-14T12:11:05.854Z,98123.66
2023-05-14T12:13:33.063Z,98124.47
2023-05-14T12:16:02.260Z,98121.19
2023-05-14T12:18:30.318Z,98126.56
2023-05-14T12:21:02.621Z,98129.50
2023-05-14T12:23:30.875Z,98131.16
2023-05-14T12:26:01.995Z,98133.41
2023-05-14T12:28:29.607Z,98134.16
2023-05-14T12:30:57.512Z,98129.66
2023-05-14T12:33:27.596Z,98126.97
2023-05-14T12:35:55.216Z,98134.78
2023-05-14T12:38:22.439Z,98134.00
2023-05-14T12:40:49.624Z,98134.00
2023-05-14T12:43:17.317Z,98139.38
2023-05-14T12:45:44.531Z,98129.28
2023-05-14T12:48:11.758Z,98141.28
2023-05-14T12:50:40.989Z,98146.66
2023-05-14T12:53:08.453Z,98144.22
2023-05-14T12:55:35.626Z,98147.16
2023-05-14T12:58:02.834Z,98154.00
2023-05-14T13:00:30.055Z,98150.47
2023-05-14T13:02:57.200Z,98153.41
2023-05-14T13:05:24.700Z,98154.66
2023-05-14T13:07:54.174Z,98161.97
2023-05-14T13:10:21.396Z,98160.88
2023-05-14T13:12:48.463Z,98163.16
2023-05-14T13:15:15.625Z,98162.72
2023-05-14T13:17:42.722Z,98156.69
2023-05-14T13:20:10.582Z,98159.69
2023-05-14T13:22:38.030Z,98158.41
2023-05-14T13:25:07.845Z,98155.66
2023-05-14T13:27:35.192Z,98162.41
2023-05-14T13:30:02.324Z,98167.72
2023-05-14T13:32:30.056Z,98170.25
2023-05-14T13:34:57.359Z,98173.50
2023-05-14T13:37:25.236Z,98180.66
2023-05-14T13:39:53.386Z,98178.56
2023-05-14T13:42:22.333Z,98184.16
2023-05-14T13:44:52.241Z,98180.78
2023-05-14T13:47:19.468Z,98191.19
2023-05-14T13:49:46.549Z,98189.19
2023-05-14T13:52:14.312Z,98193.75
2023-05-14T13:54:41.554Z,98196.28
2023-05-14T13:57:08.647Z,98197.50
2023-05-14T13:59:37.197Z,98192.81
2023-05-14T14:02:05.053Z,98201.00
2023-05-14T14:04:32.306Z,98205.88
2023-05-14T14:06:59.409Z,98198.78
2023-05-14T14:09:26.642Z,98206.47
2023-05-14T14:11:53.850Z,98201.66
2023-05-14T14:14:21.363Z,98207.19
2023-05-14T14:16:49.957Z,98211.94
2023-05-14T14:19:18.507Z,98217.78
2023-05-14T14:21:45.896Z,98215.94
2023-05-14T14:24:13.511Z,98213.41
2023-05-14T14:26:40.593Z,98215.41
2023-05-14T14:29:07.755Z,98215.53
2023-05-14T14:31:35.260Z,98220.31
2023-05-14T14:34:04.015Z,98222.00
2023-05-14T14:36:31.327Z,98222.66
2023-05-14T14:38:59.010Z,98221.59
2023-05-14T14:41:26.207Z,98226.97
2023-05-14T14:43:53.330Z,98232.41
2023-05-14T14:46:20.855Z,98233.69
2023-05-14T14:48:48.305Z,98231.94
2023-05-14T14:51:17.054Z,98234.31
2023-05-14T14:53:44.692Z,98233.72
2023-05-14T14:56:11.962Z,98237.84
2023-05-14T14:58:39.237Z,98234.94
2023-05-14T15:01:06.339Z,98238.28
2023-05-14T15:03:33.973Z,98238.28
2023-05-14T15:06:01.330Z,98241.47
2023-05-14T15:08:29.892Z,98253.44
2023-05-14T15:10:57.118Z,98247.00
2023-05-14T15:13:24.239Z,98245.97
2023-05-14T15:15:51.656Z,98247.97
2023-05-14T15:18:18.752Z,98253.34
2023-05-14T15:20:46.407Z,98253.78
2023-05-14T15:23:13.493Z,98261.72
2023-05-14T15:25:42.122Z,98260.22
2023-05-14T15:28:09.227Z,98269.75
2023-05-14T15:30:36.319Z,98274.53
2023-05-14T15:33:03.640Z,98282.59
2023-05-14T15:35:30.855Z,98277.13
2023-05-14T15:37:58.546Z,98280.09
2023-05-14T15:40:27.720Z,98280.47
2023-05-14T15:42:56.430Z,98286.09
2023-05-14T15:45:23.869Z,98286.00
2023-05-14T15:47:51.054Z,98292.13
2023-05-14T15:50:18.137Z,98297.50
2023-05-14T15:52:45.441Z,98296.41
2023-05-14T15:55:12.621Z,98296.50
2023-05-14T15:57:39.814Z,98297.72
2023-05-14T16:00:09.133Z,98301.81
2023-05-14T16:02:36.383Z,98303.41
2023-05-14T16:05:03.752Z,98303.09
2023-05-14T16:07:31.068Z,98308.22
2023-05-14T16:09:58.154Z,98312.44
2023-05-14T16:12:25.271Z,98318.97
2023-05-14T16:14:52.378Z,98325.66
2023-05-14T16:17:20.907Z,98324.81
2023-05-14T16:19:48.302Z,98325.00
2023-05-14T16:22:15.986Z,98331.63
2023-05-14T16:24:43.175Z,98328.28
2023-05-14T16:27:10.278Z,98329.06
2023-05-14T16:29:37.374Z,98327.63
2023-05-14T16:32:04.838Z,98325.56
2023-05-14T16:34:33.583Z,98322.88
2023-05-14T16:37:00.627Z,98327.78
2023-05-14T16:39:27.745Z,98327.84
2023-05-14T16:41:55.818Z,98332.38
2023-05-14T16:44:23.185Z,98328.59
2023-05-14T16:46:51.007Z,98329.69
2023-05-14T16:49:18.107Z,98337.97
2023-05-14T16:51:46.799Z,98330.97
2023-05-14T16:54:13.894Z,98329.06
2023-05-14T16:56:40.966Z,98336.50
2023-05-14T16:59:08.571Z,98340.34
2023-05-14T17:01:36.177Z,98335.94
2023-05-14T17:06:30.053Z,98347.13
2023-05-14T17:08:58.561Z,98341.09
2023-05-14T17:11:25.840Z,98346.28
2023-05-14T17:13:52.926Z,98343.94
2023-05-14T17:16:20.141Z,98346.13
2023-05-14T17:18:47.358Z,98349.56
2023-05-14T17:21:14.631Z,98349.16
2023-05-14T17:23:41.712Z,98358.09
2023-05-14T17:26:10.307Z,98354.19
2023-05-14T17:28:37.544Z,98349.81
2023-05-14T17:31:04.833Z,98349.16
2023-05-14T17:33:31.992Z,98357.13
2023-05-14T17:35:59.202Z,98365.25
2023-05-14T17:38:26.671Z,98358.59
2023-05-14T17:40:53.771Z,98353.41
2023-05-14T17:43:22.285Z,98371.66
2023-05-14T17:45:54.549Z,98368.13
2023-05-14T17:48:22.258Z,98375.00
2023-05-14T17:50:49.525Z,98373.50
2023-05-14T17:53:17.322Z,98375.06
2023-05-14T17:55:44.474Z,98382.69
2023-05-14T17:58:11.645Z,98383.25
2023-05-14T18:00:40.692Z,98379.84
2023-05-14T18:03:07.965Z,98387.25
2023-05-14T18:05:35.399Z,98390.56
2023-05-14T18:08:02.552Z,98392.63
2023-05-14T18:10:29.664Z,98386.63
2023-05-14T18:12:57.310Z,98385.53
2023-05-14T18:15:25.042Z,98381.53
2023-05-14T18:17:53.835Z,98385.63
2023-05-14T18:20:21.351Z,98379.56
2023-05-14T18:22:49.561Z,98392.03
2023-05-14T18:25:16.781Z,98393.72
2023-05-14T18:27:45.362Z,98390.31
2023-05-14T18:30:14.997Z,98387.63
2023-05-14T18:32:42.758Z,98385.97
2023-05-14T18:35:11.923Z,98393.72
2023-05-14T18:37:39.163Z,98389.13
2023-05-14T18:40:06.946Z,98392.03
2023-05-14T18:42:34.444Z,98398.06
2023-05-14T18:45:01.674Z,98396.19
2023-05-14T18:47:29.695Z,98389.13
2023-05-14T18:49:56.863Z,98396.00
2023-05-14T18:52:25.391Z,98398.25
2023-05-14T18:54:52.564Z,98387.09
2023-05-14T18:57:20.172Z,98397.22
2023-05-14T18:59:47.289Z,98402.81
2023-05-14T19:02:14.338Z,98400.13
2023-05-14T19:04:51.724Z,98393.88
2023-05-14T19:07:20.289Z,98396.41
2023-05-14T19:09:48.904Z,98396.56
2023-05-14T19:12:16.199Z,98405.66
2023-05-14T19:14:43.490Z,98405.50
2023-05-14T19:17:10.806Z,98408.81
2023-05-14T19:19:37.978Z,98399.25
2023-05-14T19:22:05.388Z,98404.78
2023-05-14T19:24:32.513Z,98407.34
2023-05-14T19:27:01.335Z,98399.25
2023-05-14T19:29:28.437Z,98401.06
2023-05-14T19:31:55.988Z,98407.69
2023-05-14T19:34:23.297Z,98408.91
2023-05-14T19:36:50.452Z,98400.19
2023-05-14T19:39:17.522Z,98398.31
2023-05-14T19:41:44.619Z,98402.22
2023-05-14T19:44:13.239Z,98412.16
2023-05-14T19:46:40.569Z,98402.22
2023-05-14T19:49:07.710Z,98410.66
2023-05-14T19:51:34.985Z,98398.41
2023-05-14T19:54:02.212Z,98407.72
2023-05-14T19:56:29.319Z,98397.03
2023-05-14T19:58:56.410Z,98408.72
2023-05-14T20:01:25.158Z,98413.19
2023-05-14T20:03:52.381Z,98409.84
2023-05-14T20:06:19.434Z,98412.16
2023-05-14T20:08:46.613Z,98419.59
2023-05-14T20:11:13.760Z,98414.00
2023-05-14T20:13:40.834Z,98420.63
2023-05-14T20:16:08.105Z,98413.81
2023-05-14T20:18:36.884Z,98425.88
2023-05-14T20:21:04.262Z,98428.47
2023-05-14T20:23:31.401Z,98432.00
2023-05-14T20:25:58.475Z,98427.66
2023-05-14T20:28:25.630Z,98432.75
2023-05-14T20:30:52.814Z,98434.63
2023-05-14T20:33:19.898Z,98440.66
2023-05-14T20:35:48.761Z,98436.47
2023-05-14T20:38:15.799Z,98441.84
2023-05-14T20:40:42.819Z,98437.50
2023-05-14T20:43:09.946Z,98441.59
2023-05-14T20:45:37.373Z,98445.19
2023-05-14T20:48:05.056Z,98439.16
2023-05-14T20:50:32.153Z,98442.22
2023-05-14T20:53:00.721Z,98444.06
2023-05-14T20:55:28.435Z,98433.13
2023-05-14T20:57:55.526Z,98441.59
2023-05-14T21:00:22.720Z,98448.06
2023-05-14T21:02:50.168Z,98442.22
2023-05-14T21:05:17.481Z,98445.19
2023-05-14T21:07:44.513Z,98441.22
2023-05-14T21:10:13.168Z,98441.38
2023-05-14T21:12:59.391Z,98442.88
2023-05-14T21:15:26.902Z,98446.59
2023-05-14T21:17:54.172Z,98444.94
2023-05-14T21:20:21.358Z,98442.78
2023-05-14T21:22:48.446Z,98447.97
2023-05-14T21:25:17.776Z,98449.66
2023-05-14T21:27:44.955Z,98445.28
2023-05-14T21:30:12.637Z,98447.31
2023-05-14T21:32:39.806Z,98444.56
2023-05-14T21:35:07.379Z,98454.13
2023-05-14T21:37:34.585Z,98459.03
2023-05-14T21:40:01.692Z,98456.41
2023-05-14T21:42:30.326Z,98460.97
2023-05-14T21:44:57.439Z,98461.97
2023-05-14T21:47:24.984Z,98459.56
2023-05-14T21:49:52.116Z,98466.53
2023-05-14T21:52:19.167Z,98464.66
2023-05-14T21:54:46.476Z,98464.09
2023-05-14T21:57:13.611Z,98459.09
2023-05-14T21:59:42.158Z,98471.28
2023-05-14T22:02:09.248Z,98467.56
2023-05-14T22:04:36.959Z,98473.13
2023-05-14T22:07:04.753Z,98468.59
2023-05-14T22:09:31.802Z,98473.50
2023-05-14T22:11:59.525Z,98469.59
2023-05-14T22:14:27.079Z,98472.72
2023-05-14T22:16:55.753Z,98473.50
2023-05-14T22:19:22.940Z,98472.66
2023-05-14T22:21:50.089Z,98480.06
2023-05-14T22:24:17.174Z,98481.28
2023-05-14T22:26:44.339Z,98474.53
2023-05-14T22:29:11.577Z,98471.72
2023-05-14T22:31:38.842Z,98464.88
2023-05-14T22:34:07.510Z,98463.56
2023-05-14T22:36:34.575Z,98458.81
2023-05-14T22:39:01.610Z,98463.09
2023-05-14T22:41:28.684Z,98465.97
2023-05-14T22:43:55.874Z,98458.25
2023-05-14T22:46:23.055Z,98467.34
2023-05-14T22:48:50.108Z,98466.16
2023-05-14T22:51:18.586Z,98467.00
2023-05-14T22:53:45.678Z,98465.97
2023-05-14T22:56:12.754Z,98471.34
2023-05-14T22:58:39.854Z,98469.47
2023-05-14T23:01:07.460Z,98469.47
2023-05-14T23:03:34.641Z,98466.72
2023-05-14T23:06:01.974Z,98477.47
2023-05-14T23:08:30.626Z,98475.97
2023-05-14T23:10:57.696Z,98471.28
2023-05-14T23:13:24.887Z,98467.56
2023-05-14T23:15:51.992Z,98467.56
2023-05-14T23:18:19.140Z,98466.53
2023-05-14T23:20:46.317Z,98467.19
2023-05-14T23:23:13.479Z,98467.34
2023-05-14T23:25:42.069Z,98464.66
2023-05-14T23:28:09.196Z,98458.47
2023-05-14T23:30:36.243Z,98452.44
2023-05-14T23:33:03.420Z,98459.66
2023-05-14T23:35:30.562Z,98454.28
2023-05-14T23:37:57.643Z,98455.97
2023-05-14T23:40:24.701Z,98447.25
2023-05-14T23:42:53.252Z,98459.38
2023-05-14T23:45:20.921Z,98452.16
2023-05-14T23:47:48.020Z,98452.06
2023-05-14T23:50:15.148Z,98453.00
2023-05-14T23:52:42.229Z,98456.97
2023-05-14T23:55:09.856Z,98455.31
2023-05-14T23:57:36.968Z,98452.44
